Airfield :
LOGIN :

Register | Disclaimer

   EN    FR    IT 

 










Legend :    VFR   Marginal VFR   IFR   Intensive IFR   Very Intensive IFR
Visi :
Ceiling :
>= 8 km
>= 3000ft
5 to 8 km
1000 to 3000 ft
1500m to 5 km
500 to 1000 ft
800 to 1500m
200 to 500 ft
< 800m
< 200 ft
Symbols :   Thunderstorms  Fog  Heavy snow  Heavy precipitations  Wind > 20 kt
SIGMETs :     Misc.  Thunderstorms  Icing  Turbulence  Mountain Waves  Volcanic Ashes






- Airport Elevation : 1966 ft
- IATA code : SGE


EDGS - Siegerland

CURRENT METAR :
  • 071520Z 22004KT 160V260 CAVOK 13/04 Q1021

EXPIRED METARs :
  • 071450Z 22008KT 190V250 CAVOK 14/02 Q1021
  • 071420Z 23008KT CAVOK 14/02 Q1021
  • 071350Z 23008KT 170V260 CAVOK 14/02 Q1022
  • 071320Z 21007KT 160V250 CAVOK 14/04 Q1022
  • 071250Z 24007KT 160V290 CAVOK 14/05 Q1022

TAF TAF EDGS
Valid from the 07 at 15:00 until the 08 at 00:00 UTC


071400Z 0715/0724 22006KT CAVOK



MET'MAP, your aeronautical weather chart ! - Copyright ORBIFLY December 2007 - Disclaimer

ORBIFLY MET'MAP TEAM :

Programming & Development : Alexandra Zaïnal
Original concept : Baudouin d'Aumeries
Technical & hardware support : Manuel Goepfert
Assistance : Marc-Olivier Méhu




SOURCES & CREDITS :

   NOAA